Ouray, CO

11:40 AM MDT on April 30, 2017 (GMT -0600)
Ouray | | Change Station

Elev 7736 ft 38.03 °N, 107.67 °W | Updated 25 seconds ago

Clear
Clear
38.7 °F
Feels Like 33 °F
N
9.0
Wind Variable Wind from NNW
Gusts 9.0 mph

Today
High -- | Low -- °F
--% Chance of Precip.
Yesterday
High -- | Low -- °F
Precip. -- in
Pressure 30.16 in
Visibility 10.0 miles
Clouds Clear
Windchill 33 °F
Dew Point 17 °F
Humidity 41%
Rainfall 0.05 in
Snow Depth Not available.
6:15 AM 8:00 PM
Waxing Crescent, 24% visible
METAR KTEX 301735Z AUTO 27012G18KT 10SM CLR 01/M09 A3016 RMK AO2 T00061095
Pressure 30.16 in
Visibility 10.0 miles
Clouds Clear
Windchill 33 °F
Dew Point 17 °F
Humidity 41%
Rainfall 0.05 in
Snow Depth Not available.
6:15 AM 8:00 PM
Waxing Crescent, 24% visible
METAR KTEX 301735Z AUTO 27012G18KT 10SM CLR 01/M09 A3016 RMK AO2 T00061095

Get Severe Weather Alerts

Thanks for signing up!

Be on the lookout for a verification email in your inbox.

You'll start receiving the daily forecast at 8 AM.

×

10-Day Weather Forecast

Almanac

Astronomy

Apr. 30, 2017 Rise Set
Actual Time
Civil Twilight
Nautical Twilight
Astronomical Twilight
Moon
Length of Visible Light
Length of Day
Tomorrow will be .
, % of the Moon is Illuminated

Today's Extremes

State Highs State Lows

Community

WunderPhotos

WunderBlog® & News

Nearby

Air Quality

  Air Quality AQ Index Pollutant
Not available.

Snow Depth

Station Depth Elevation

Earthquake Activity

City Distance Mag. Time & Date
Minimum magnitude displayed is 2.5.

Coastal Water Temperatures

Place Temperature

Stations

Nearby Weather Stations

Station Location Temp. Windchill Dew Point Humidity Wind Precip. Elev Updated Type
                   

Watches & Warnings

There are currently no watches in effect.